createdAt,value
2019-02-04T00:00:37.621Z,97988.84
2019-02-04T00:03:09.205Z,97993.50
2019-02-04T00:05:39.832Z,97993.91
2019-02-04T00:08:10.192Z,97993.41
2019-02-04T00:10:40.576Z,98006.47
2019-02-04T00:13:10.936Z,98001.11
2019-02-04T00:15:41.358Z,97996.13
2019-02-04T00:18:11.828Z,98000.93
2019-02-04T00:20:42.124Z,98001.48
2019-02-04T00:23:13.060Z,97998.78
2019-02-04T00:25:43.358Z,98013.57
2019-02-04T00:28:14.010Z,98015.12
2019-02-04T00:30:44.669Z,98017.78
2019-02-04T00:33:14.845Z,98016.10
2019-02-04T00:35:44.961Z,98024.00
2019-02-04T00:38:15.589Z,98029.56
2019-02-04T00:40:45.871Z,98030.03
2019-02-04T00:43:16.152Z,98025.27
2019-02-04T00:45:46.518Z,98036.95
2019-02-04T00:48:16.841Z,98039.86
2019-02-04T00:50:47.119Z,98042.02
2019-02-04T00:53:17.471Z,98043.28
2019-02-04T00:55:47.743Z,98047.00
2019-02-04T00:58:17.889Z,98048.34
2019-02-04T01:00:48.267Z,98051.94
2019-02-04T01:03:18.736Z,98053.03
2019-02-04T01:05:49.145Z,98058.77
2019-02-04T01:08:19.435Z,98066.95
2019-02-04T01:10:49.651Z,98066.14
2019-02-04T01:13:19.868Z,98071.59
2019-02-04T01:15:50.219Z,98076.27
2019-02-04T01:18:20.906Z,98082.51
2019-02-04T01:20:51.092Z,98081.03
2019-02-04T01:23:21.296Z,98086.31
2019-02-04T01:25:51.561Z,98082.89
2019-02-04T01:28:21.927Z,98083.27
2019-02-04T01:30:52.242Z,98087.07
2019-02-04T01:33:22.574Z,98091.84
2019-02-04T01:35:52.793Z,98084.97
2019-02-04T01:38:23.056Z,98088.18
2019-02-04T01:40:53.518Z,98092.58
2019-02-04T01:43:24.060Z,98095.95
2019-02-04T01:45:54.452Z,98101.31
2019-02-04T01:48:24.653Z,98108.23
2019-02-04T01:50:54.928Z,98096.25
2019-02-04T01:53:25.106Z,98095.39
2019-02-04T01:55:55.695Z,98102.20
2019-02-04T01:58:26.287Z,98099.95
2019-02-04T02:00:56.650Z,98100.84
2019-02-04T02:03:27.006Z,98104.34
2019-02-04T02:05:57.343Z,98116.88
2019-02-04T02:08:28.263Z,98111.61
2019-02-04T02:10:58.892Z,98111.95
2019-02-04T02:13:29.103Z,98110.30
2019-02-04T02:15:59.403Z,98121.55
2019-02-04T02:18:29.733Z,98115.22
2019-02-04T02:20:59.923Z,98130.59
2019-02-04T02:23:30.486Z,98128.60
2019-02-04T02:26:01.107Z,98133.02
2019-02-04T02:28:31.374Z,98128.86
2019-02-04T02:31:01.801Z,98128.28
2019-02-04T02:33:32.484Z,98121.70
2019-02-04T02:36:02.698Z,98133.36
2019-02-04T02:38:32.977Z,98134.98
2019-02-04T02:41:03.393Z,98123.98
2019-02-04T02:43:33.974Z,98136.11
2019-02-04T02:46:04.828Z,98139.41
2019-02-04T02:48:34.996Z,98140.98
2019-02-04T02:51:05.558Z,98148.37
2019-02-04T02:53:35.819Z,98143.89
2019-02-04T02:56:06.320Z,98144.70
2019-02-04T02:58:37.523Z,98149.02
2019-02-04T03:01:07.764Z,98154.05
2019-02-04T03:03:38.092Z,98158.35
2019-02-04T03:06:08.323Z,98161.09
2019-02-04T03:08:38.983Z,98160.72
2019-02-04T03:11:09.548Z,98165.58
2019-02-04T03:13:39.830Z,98158.63
2019-02-04T03:16:10.181Z,98155.40
2019-02-04T03:18:40.367Z,98162.28
2019-02-04T03:21:10.922Z,98161.84
2019-02-04T03:23:41.119Z,98160.37
2019-02-04T03:26:11.730Z,98165.09
2019-02-04T03:28:41.922Z,98174.13
2019-02-04T03:31:12.253Z,98176.17
2019-02-04T03:33:42.722Z,98181.62
2019-02-04T03:36:12.983Z,98183.73
2019-02-04T03:38:43.350Z,98191.87
2019-02-04T03:41:13.700Z,98190.52
2019-02-04T03:43:44.358Z,98183.75
2019-02-04T03:46:14.700Z,98192.02
2019-02-04T03:48:45.229Z,98201.38
2019-02-04T03:51:15.578Z,98202.53
2019-02-04T03:53:45.927Z,98208.21
2019-02-04T03:56:16.378Z,98199.66
2019-02-04T03:58:47.134Z,98209.78
2019-02-04T04:01:17.479Z,98225.14
2019-02-04T04:03:47.858Z,98226.66
2019-02-04T04:06:18.203Z,98218.98
2019-02-04T04:08:48.595Z,98229.25
2019-02-04T04:11:19.143Z,98229.62
2019-02-04T04:13:49.565Z,98239.34
2019-02-04T04:16:20.184Z,98243.42
2019-02-04T04:18:51.641Z,98248.11
2019-02-04T04:21:22.779Z,98244.27
2019-02-04T04:23:53.176Z,98256.27
2019-02-04T04:26:23.556Z,98256.09
2019-02-04T04:28:54.277Z,98249.82
2019-02-04T04:31:24.481Z,98266.38
2019-02-04T04:33:54.655Z,98271.12
2019-02-04T04:36:25.033Z,98271.24
2019-02-04T04:38:55.149Z,98270.72
2019-02-04T04:41:25.454Z,98273.30
2019-02-04T04:43:55.728Z,98272.09
2019-02-04T04:46:26.242Z,98276.70
2019-02-04T04:48:56.567Z,98272.53
2019-02-04T04:51:26.700Z,98281.96
2019-02-04T04:53:57.226Z,98279.04
2019-02-04T04:56:27.350Z,98287.05
2019-02-04T04:58:57.749Z,98289.69
2019-02-04T05:01:28.327Z,98283.47
2019-02-04T05:03:58.581Z,98292.19
2019-02-04T05:06:28.861Z,98290.47
2019-02-04T05:08:59.187Z,98301.69
2019-02-04T05:11:29.481Z,98305.50
2019-02-04T05:13:59.619Z,98305.57
2019-02-04T05:16:30.178Z,98307.75
2019-02-04T05:19:00.709Z,98313.92
2019-02-04T05:21:31.565Z,98310.05
2019-02-04T05:24:01.784Z,98304.91
2019-02-04T05:26:32.094Z,98314.94
2019-02-04T05:29:03.378Z,98314.77
2019-02-04T05:31:33.710Z,98327.22
2019-02-04T05:34:04.005Z,98327.58
2019-02-04T05:36:34.304Z,98339.08
2019-02-04T05:39:07.440Z,98346.94
2019-02-04T05:41:38.547Z,98345.67
2019-02-04T05:44:09.181Z,98340.09
2019-02-04T05:46:39.532Z,98337.62
2019-02-04T05:49:09.654Z,98343.00
2019-02-04T05:51:39.870Z,98332.53
2019-02-04T05:54:10.220Z,98339.86
2019-02-04T05:56:40.696Z,98339.30
2019-02-04T05:59:11.068Z,98334.55
2019-02-04T06:01:41.293Z,98335.64
2019-02-04T06:04:12.705Z,98339.41
2019-02-04T06:06:42.920Z,98352.25
2019-02-04T06:09:13.278Z,98342.22
2019-02-04T06:11:43.873Z,98352.25
2019-02-04T06:14:14.153Z,98349.10
2019-02-04T06:16:44.951Z,98358.26
2019-02-04T06:19:15.147Z,98358.87
2019-02-04T06:21:45.635Z,98353.77
2019-02-04T06:24:15.850Z,98364.02
2019-02-04T06:26:46.362Z,98370.50
2019-02-04T06:29:16.813Z,98374.76
2019-02-04T06:31:47.190Z,98381.30
2019-02-04T06:34:17.669Z,98372.08
2019-02-04T06:36:48.234Z,98383.77
2019-02-04T06:39:18.728Z,98384.73
2019-02-04T06:41:49.578Z,98393.75
2019-02-04T06:44:20.001Z,98388.28
2019-02-04T06:46:50.828Z,98387.86
2019-02-04T06:49:21.244Z,98380.80
2019-02-04T06:51:51.642Z,98382.59
2019-02-04T06:54:22.070Z,98376.83
2019-02-04T06:56:52.816Z,98365.48
2019-02-04T06:59:23.338Z,98370.34
2019-02-04T07:01:54.213Z,98382.45
2019-02-04T07:04:24.706Z,98374.48
2019-02-04T07:06:55.463Z,98382.20
2019-02-04T07:09:26.866Z,98382.25
2019-02-04T07:11:57.326Z,98367.48
2019-02-04T07:14:28.027Z,98381.24
2019-02-04T07:16:58.500Z,98383.55
2019-02-04T07:19:29.318Z,98389.41
2019-02-04T07:21:59.886Z,98384.38
2019-02-04T07:24:42.165Z,98385.66
2019-02-04T07:27:02.917Z,98395.33
2019-02-04T07:29:33.679Z,98398.81
2019-02-04T07:32:04.432Z,98389.83
2019-02-04T07:34:34.865Z,98394.72
2019-02-04T07:37:05.313Z,98394.84
2019-02-04T07:39:35.827Z,98399.55
2019-02-04T07:42:06.836Z,98405.95
2019-02-04T07:44:37.302Z,98400.02
2019-02-04T07:47:08.145Z,98404.66
2019-02-04T07:49:39.491Z,98406.08
2019-02-04T07:52:10.050Z,98407.62
2019-02-04T07:54:41.249Z,98407.23
2019-02-04T07:57:11.655Z,98407.23
2019-02-04T07:59:42.024Z,98393.50
2019-02-04T08:02:12.493Z,98400.52
2019-02-04T08:04:43.193Z,98394.97
2019-02-04T08:07:13.678Z,98390.47
2019-02-04T08:09:44.135Z,98397.73
2019-02-04T08:12:14.479Z,98398.66
2019-02-04T08:14:45.407Z,98394.55
2019-02-04T08:17:15.920Z,98388.95
2019-02-04T08:19:47.504Z,98389.39
2019-02-04T08:22:18.231Z,98388.72
2019-02-04T08:24:48.719Z,98391.44
2019-02-04T08:27:19.389Z,98399.02
2019-02-04T08:29:49.841Z,98403.58
2019-02-04T08:32:20.719Z,98399.87
2019-02-04T08:34:51.520Z,98399.38
2019-02-04T08:37:22.255Z,98407.44
2019-02-04T08:39:53.034Z,98403.23
2019-02-04T08:42:23.531Z,98403.32
2019-02-04T08:44:54.283Z,98400.45
2019-02-04T08:47:24.779Z,98398.63
2019-02-04T08:49:58.406Z,98401.70
2019-02-04T08:52:27.640Z,98399.77
2019-02-04T08:54:58.463Z,98396.14
2019-02-04T08:57:28.871Z,98391.44
2019-02-04T08:59:59.334Z,98396.56
2019-02-04T09:02:30.197Z,98397.25
2019-02-04T09:05:00.866Z,98399.02
2019-02-04T09:07:31.999Z,98403.33
2019-02-04T09:10:02.441Z,98394.64
2019-02-04T09:12:32.790Z,98387.81
2019-02-04T09:15:03.196Z,98389.95
2019-02-04T09:17:33.864Z,98388.31
2019-02-04T09:20:10.173Z,98396.92
2019-02-04T09:22:37.798Z,98396.88
2019-02-04T09:25:10.920Z,98397.14
2019-02-04T09:27:41.257Z,98405.25
2019-02-04T09:30:19.505Z,98411.60
2019-02-04T09:32:50.242Z,98415.13
2019-02-04T09:35:22.405Z,98421.59
2019-02-04T09:37:52.841Z,98419.98
2019-02-04T09:40:33.145Z,98419.80
2019-02-04T09:43:03.628Z,98419.29
2019-02-04T09:45:34.027Z,98425.53
2019-02-04T09:48:05.561Z,98422.75
2019-02-04T09:50:36.480Z,98420.06
2019-02-04T09:53:07.444Z,98431.15
2019-02-04T09:55:39.300Z,98430.87
2019-02-04T09:58:09.797Z,98432.20
2019-02-04T10:00:40.534Z,98425.03
2019-02-04T10:03:11.251Z,98425.03
2019-02-04T10:05:41.963Z,98422.78
2019-02-04T10:08:12.372Z,98421.97
2019-02-04T10:10:43.031Z,98414.95
2019-02-04T10:13:13.829Z,98406.23
2019-02-04T10:15:45.912Z,98401.54
2019-02-04T10:18:16.999Z,98396.22
2019-02-04T10:20:47.482Z,98400.00
2019-02-04T10:23:18.051Z,98396.62
2019-02-04T10:25:48.477Z,98397.66
2019-02-04T10:28:18.805Z,98397.98
2019-02-04T10:30:49.520Z,98389.84
2019-02-04T10:33:20.410Z,98381.89
2019-02-04T10:35:51.179Z,98377.30
2019-02-04T10:38:21.597Z,98372.44
2019-02-04T10:40:52.054Z,98369.29
2019-02-04T10:43:22.596Z,98373.20
2019-02-04T10:45:53.390Z,98372.77
2019-02-04T10:48:24.106Z,98375.42
2019-02-04T10:50:54.607Z,98380.17
2019-02-04T10:53:25.065Z,98378.27
2019-02-04T10:55:55.468Z,98382.97
2019-02-04T10:58:25.987Z,98381.48
2019-02-04T11:00:56.464Z,98374.16
2019-02-04T11:03:26.941Z,98376.06
2019-02-04T11:05:57.493Z,98375.95
2019-02-04T11:08:27.898Z,98373.03
2019-02-04T11:10:58.615Z,98369.22
2019-02-04T11:13:29.299Z,98365.50
2019-02-04T11:15:59.748Z,98367.66
2019-02-04T11:18:30.938Z,98369.02
2019-02-04T11:21:01.356Z,98361.48
2019-02-04T11:23:31.918Z,98354.25
2019-02-04T11:26:02.926Z,98353.69
2019-02-04T11:28:33.468Z,98348.41
2019-02-04T11:31:08.351Z,98347.05
2019-02-04T11:33:38.786Z,98335.86
2019-02-04T11:36:09.210Z,98333.86
2019-02-04T11:38:40.004Z,98328.45
2019-02-04T11:41:10.731Z,98336.81
2019-02-04T11:43:41.223Z,98342.43
2019-02-04T11:46:11.743Z,98335.80
2019-02-04T11:48:42.234Z,98341.72
2019-02-04T11:51:13.287Z,98343.77
2019-02-04T11:53:43.820Z,98345.81
2019-02-04T11:56:14.237Z,98346.20
2019-02-04T11:58:44.511Z,98344.63
2019-02-04T12:01:15.414Z,98351.51
2019-02-04T12:03:46.289Z,98350.55
2019-02-04T12:06:17.513Z,98351.05
2019-02-04T12:08:48.375Z,98345.17
2019-02-04T12:11:21.646Z,98337.75
2019-02-04T12:13:52.108Z,98340.02
2019-02-04T12:16:22.593Z,98335.83
2019-02-04T12:18:53.041Z,98328.89
2019-02-04T12:21:23.639Z,98325.76
2019-02-04T12:23:54.347Z,98331.13
2019-02-04T12:26:25.054Z,98329.36
2019-02-04T12:28:57.769Z,98327.41
2019-02-04T12:31:28.023Z,98322.54
2019-02-04T12:33:58.735Z,98313.25
2019-02-04T12:36:29.156Z,98319.84
2019-02-04T12:38:59.616Z,98325.98
2019-02-04T12:41:29.976Z,98303.71
2019-02-04T12:44:00.734Z,98297.89
2019-02-04T12:46:31.039Z,98297.81
2019-02-04T12:49:01.690Z,98286.87
2019-02-04T12:51:33.721Z,98276.80
2019-02-04T12:54:04.172Z,98270.12
2019-02-04T12:56:34.551Z,98270.47
2019-02-04T12:59:05.344Z,98264.63
2019-02-04T13:01:35.760Z,98258.27
2019-02-04T13:04:06.885Z,98259.58
2019-02-04T13:06:37.250Z,98255.07
2019-02-04T13:09:10.513Z,98259.64
2019-02-04T13:11:40.991Z,98250.31
2019-02-04T13:14:11.640Z,98237.05
2019-02-04T13:16:41.997Z,98237.62
2019-02-04T13:19:12.369Z,98239.81
2019-02-04T13:21:45.592Z,98236.77
2019-02-04T13:24:15.056Z,98239.36
2019-02-04T13:26:45.734Z,98237.59
2019-02-04T13:29:15.905Z,98233.17
2019-02-04T13:31:46.453Z,98229.64
2019-02-04T13:34:16.869Z,98234.74
2019-02-04T13:36:47.489Z,98230.24
2019-02-04T13:39:18.133Z,98222.25
2019-02-04T13:41:48.572Z,98217.48
2019-02-04T13:44:18.864Z,98210.45
2019-02-04T13:46:49.534Z,98209.44
2019-02-04T13:49:20.281Z,98200.02
2019-02-04T13:51:57.579Z,98190.18
2019-02-04T13:54:22.924Z,98194.33
2019-02-04T13:56:53.251Z,98195.48
2019-02-04T13:59:23.642Z,98188.41
2019-02-04T14:01:53.982Z,98184.20
2019-02-04T14:04:24.378Z,98189.75
2019-02-04T14:06:55.374Z,98182.43
2019-02-04T14:09:25.715Z,98188.22
2019-02-04T14:11:56.229Z,98185.00
2019-02-04T14:14:26.561Z,98182.09
2019-02-04T14:16:56.933Z,98176.59
2019-02-04T14:19:27.356Z,98174.63
2019-02-04T14:22:08.667Z,98172.05
2019-02-04T14:24:30.625Z,98174.63
2019-02-04T14:27:00.892Z,98169.20
2019-02-04T14:29:33.742Z,98156.50
2019-02-04T14:32:03.219Z,98147.36
2019-02-04T14:34:33.975Z,98150.82
2019-02-04T14:37:04.566Z,98146.58
2019-02-04T14:39:35.030Z,98143.75
2019-02-04T14:42:09.546Z,98134.55
2019-02-04T14:44:49.164Z,98140.75
2019-02-04T14:47:45.962Z,98147.41
2019-02-04T14:50:56.520Z,98148.25
2019-02-04T14:54:19.685Z,98147.70
2019-02-04T14:57:52.301Z,98141.20
2019-02-04T15:01:14.576Z,98146.56
2019-02-04T15:04:18.333Z,98142.61
2019-02-04T15:07:34.433Z,98139.63
2019-02-04T15:10:48.687Z,98136.44
2019-02-04T15:13:57.811Z,98135.22
2019-02-04T15:16:41.599Z,98133.80
2019-02-04T15:19:53.752Z,98135.09
2019-02-04T15:23:05.654Z,98135.61
2019-02-04T15:26:33.190Z,98137.38
2019-02-04T15:29:13.059Z,98138.71
2019-02-04T15:32:14.012Z,98141.02
2019-02-04T15:35:41.657Z,98149.42
2019-02-04T15:38:57.457Z,98146.70
2019-02-04T15:42:01.608Z,98149.27
2019-02-04T15:45:13.178Z,98164.22
2019-02-04T15:48:32.230Z,98163.16
2019-02-04T15:51:19.933Z,98166.91
2019-02-04T15:53:50.262Z,98176.55
2019-02-04T15:56:20.588Z,98184.56
2019-02-04T15:58:50.878Z,98181.61
2019-02-04T16:01:21.312Z,98187.23
2019-02-04T16:03:52.049Z,98179.08
2019-02-04T16:06:22.277Z,98184.77
2019-02-04T16:08:52.999Z,98187.27
2019-02-04T16:11:23.427Z,98196.88
2019-02-04T16:13:53.656Z,98192.11
2019-02-04T16:16:24.450Z,98185.97
2019-02-04T16:18:54.842Z,98189.34
2019-02-04T16:21:26.951Z,98193.17
2019-02-04T16:23:57.374Z,98193.27
2019-02-04T16:26:27.974Z,98191.00
2019-02-04T16:28:58.398Z,98201.29
2019-02-04T16:31:28.830Z,98208.77
2019-02-04T16:33:59.349Z,98202.34
2019-02-04T16:36:30.132Z,98210.42
2019-02-04T16:39:00.984Z,98212.41
2019-02-04T16:41:31.319Z,98209.45
2019-02-04T16:44:02.158Z,98213.08
2019-02-04T16:46:32.459Z,98215.06
2019-02-04T16:49:03.236Z,98222.73
2019-02-04T16:51:34.003Z,98217.05
2019-02-04T16:54:04.404Z,98219.06
2019-02-04T16:56:34.801Z,98220.67
2019-02-04T16:59:05.582Z,98217.16
2019-02-04T17:01:36.253Z,98218.23
2019-02-04T17:04:06.732Z,98223.80
2019-02-04T17:06:37.424Z,98226.83
2019-02-04T17:09:10.047Z,98220.49
2019-02-04T17:11:40.490Z,98216.70
2019-02-04T17:14:10.887Z,98223.73
2019-02-04T17:16:41.349Z,98219.15
2019-02-04T17:19:11.722Z,98215.62
2019-02-04T17:21:42.451Z,98222.38
2019-02-04T17:24:12.768Z,98222.61
2019-02-04T17:26:43.144Z,98216.30
2019-02-04T17:29:14.270Z,98215.53
2019-02-04T17:31:44.709Z,98224.64
2019-02-04T17:34:15.389Z,98222.66
2019-02-04T17:36:45.788Z,98216.87
2019-02-04T17:39:16.087Z,98213.18
2019-02-04T17:41:46.480Z,98218.02
2019-02-04T17:44:16.864Z,98218.02
2019-02-04T17:46:47.265Z,98223.26
2019-02-04T17:49:17.892Z,98213.64
2019-02-04T17:51:48.365Z,98223.34
2019-02-04T17:54:18.597Z,98222.72
2019-02-04T17:56:49.164Z,98223.45
2019-02-04T17:59:19.551Z,98220.73
2019-02-04T18:01:49.941Z,98218.12
2019-02-04T18:04:20.306Z,98218.23
2019-02-04T18:06:50.649Z,98217.50
2019-02-04T18:09:21.479Z,98226.33
2019-02-04T18:11:51.801Z,98236.30
2019-02-04T18:14:22.767Z,98234.77
2019-02-04T18:16:53.155Z,98223.59
2019-02-04T18:19:23.700Z,98227.15
2019-02-04T18:21:53.953Z,98235.20
2019-02-04T18:24:24.636Z,98232.31
2019-02-04T18:26:55.199Z,98233.46
2019-02-04T18:29:25.730Z,98230.81
2019-02-04T18:31:56.026Z,98227.41
2019-02-04T18:34:26.371Z,98230.69
2019-02-04T18:36:56.795Z,98235.22
2019-02-04T18:39:27.107Z,98239.64
2019-02-04T18:41:57.769Z,98230.05
2019-02-04T18:44:28.187Z,98230.45
2019-02-04T18:46:58.597Z,98229.91
2019-02-04T18:49:29.133Z,98230.94
2019-02-04T18:51:59.635Z,98233.64
2019-02-04T18:54:30.407Z,98227.48
2019-02-04T18:57:00.780Z,98232.37
2019-02-04T18:59:31.224Z,98236.25
2019-02-04T19:02:02.064Z,98226.00
2019-02-04T19:04:32.554Z,98239.72
2019-02-04T19:07:03.236Z,98237.24
2019-02-04T19:09:33.768Z,98232.44
2019-02-04T19:12:04.231Z,98216.72
2019-02-04T19:14:34.983Z,98230.17
2019-02-04T19:17:05.365Z,98232.44
2019-02-04T19:19:35.795Z,98234.48
2019-02-04T19:22:06.764Z,98225.27
2019-02-04T19:24:37.193Z,98222.52
2019-02-04T19:27:07.897Z,98225.27
2019-02-04T19:29:38.139Z,98231.44
2019-02-04T19:32:09.013Z,98238.25
2019-02-04T19:34:39.581Z,98239.75
2019-02-04T19:37:09.901Z,98227.52
2019-02-04T19:39:40.751Z,98237.33
2019-02-04T19:42:11.390Z,98234.14
2019-02-04T19:44:41.826Z,98227.41
2019-02-04T19:47:12.220Z,98214.01
2019-02-04T19:49:42.690Z,98221.94
2019-02-04T19:52:13.376Z,98229.22
2019-02-04T19:54:44.136Z,98225.59
2019-02-04T19:57:14.539Z,98228.47
2019-02-04T19:59:44.984Z,98227.08
2019-02-04T20:02:16.187Z,98229.77
2019-02-04T20:04:46.619Z,98236.70
2019-02-04T20:07:17.084Z,98238.21
2019-02-04T20:09:47.623Z,98250.40
2019-02-04T20:12:18.003Z,98242.73
2019-02-04T20:14:48.525Z,98238.31
2019-02-04T20:17:18.926Z,98236.77
2019-02-04T20:19:49.312Z,98229.31
2019-02-04T20:22:20.112Z,98237.14
2019-02-04T20:24:50.450Z,98245.69
2019-02-04T20:27:20.872Z,98240.45
2019-02-04T20:29:51.311Z,98234.73
2019-02-04T20:32:21.989Z,98238.83
2019-02-04T20:34:52.562Z,98240.45
2019-02-04T20:37:22.886Z,98243.34
2019-02-04T20:40:00.999Z,98236.80
2019-02-04T20:42:31.493Z,98244.52
2019-02-04T20:45:02.299Z,98247.47
2019-02-04T20:47:32.849Z,98252.30
2019-02-04T20:50:03.218Z,98256.61
2019-02-04T20:52:33.601Z,98246.29
2019-02-04T20:55:04.136Z,98255.69
2019-02-04T20:57:34.443Z,98248.25
2019-02-04T21:00:08.107Z,98260.69
2019-02-04T21:02:39.178Z,98268.94
2019-02-04T21:05:10.110Z,98261.77
2019-02-04T21:07:40.527Z,98260.28
2019-02-04T21:10:15.263Z,98273.09
2019-02-04T21:12:45.590Z,98260.53
2019-02-04T21:15:17.564Z,98266.48
2019-02-04T21:17:48.183Z,98271.89
2019-02-04T21:20:21.698Z,98277.36
2019-02-04T21:22:52.422Z,98275.11
2019-02-04T21:25:22.931Z,98275.87
2019-02-04T21:27:53.560Z,98287.06
2019-02-04T21:30:27.241Z,98277.38
2019-02-04T21:32:57.774Z,98275.77
2019-02-04T21:35:28.514Z,98275.25
2019-02-04T21:37:58.951Z,98283.81
2019-02-04T21:40:29.662Z,98277.25
2019-02-04T21:43:00.122Z,98276.52
2019-02-04T21:45:30.545Z,98275.22
2019-02-04T21:48:00.785Z,98274.73
2019-02-04T21:50:31.500Z,98275.12
2019-02-04T21:53:01.981Z,98277.12
2019-02-04T21:55:32.906Z,98274.73
2019-02-04T21:58:03.345Z,98273.50
2019-02-04T22:00:39.993Z,98267.80
2019-02-04T22:03:10.645Z,98265.81
2019-02-04T22:05:41.074Z,98273.73
2019-02-04T22:08:11.392Z,98273.09
2019-02-04T22:10:42.132Z,98270.84
2019-02-04T22:13:12.551Z,98270.84
2019-02-04T22:15:43.258Z,98263.52
2019-02-04T22:18:13.752Z,98256.73
2019-02-04T22:20:44.400Z,98254.59
2019-02-04T22:23:14.751Z,98257.34
2019-02-04T22:25:45.579Z,98265.67
2019-02-04T22:28:15.863Z,98267.45
2019-02-04T22:30:46.557Z,98264.14
2019-02-04T22:33:16.990Z,98264.92
2019-02-04T22:35:47.813Z,98262.14
2019-02-04T22:38:18.426Z,98263.92
2019-02-04T22:40:48.811Z,98257.36
2019-02-04T22:43:19.069Z,98260.01
2019-02-04T22:45:49.399Z,98259.52
2019-02-04T22:48:19.664Z,98254.98
2019-02-04T22:50:50.875Z,98260.91
2019-02-04T22:53:22.091Z,98249.95
2019-02-04T22:55:52.468Z,98254.36
2019-02-04T22:58:23.221Z,98263.91
2019-02-04T23:01:29.908Z,98259.50
2019-02-04T23:04:00.542Z,98260.91
2019-02-04T23:06:30.976Z,98261.16
2019-02-04T23:09:01.832Z,98261.02
2019-02-04T23:11:32.224Z,98257.50
2019-02-04T23:14:02.656Z,98253.59
2019-02-04T23:16:33.466Z,98262.14
2019-02-04T23:19:03.863Z,98266.92
2019-02-04T23:21:34.453Z,98264.05
2019-02-04T23:24:06.095Z,98256.88
2019-02-04T23:26:36.566Z,98253.84
2019-02-04T23:29:07.294Z,98253.95
2019-02-04T23:31:38.188Z,98248.81
2019-02-04T23:34:08.971Z,98244.77
2019-02-04T23:36:39.477Z,98235.22
2019-02-04T23:39:11.597Z,98226.89
2019-02-04T23:41:42.463Z,98231.70
2019-02-04T23:44:13.266Z,98226.14
2019-02-04T23:46:44.002Z,98222.63
2019-02-04T23:49:14.420Z,98219.22
2019-02-04T23:51:47.359Z,98210.55
2019-02-04T23:54:17.192Z,98207.11
2019-02-04T23:56:47.741Z,98206.48
2019-02-04T23:59:18.171Z,98214.19
